Time;durP1;ratioP1;P1;durP2;ratioP2;P2;SDS_P1;SDS_P2;PMS_P1;PMS_P2;Temp;Humidity;BMP_temperature;BMP_pressure;BME280_temperature;BME280_humidity;BME280_pressure;Samples;Min_cycle;Max_cycle;Signal;HPM_P1;HPM_P2
2021/11/02 00:00:33;;;;;;;;;;;;;;;;;;6177793;23;20036;-70
2021/11/02 00:02:59;;;;;;;6.38;1.90;;;;;;;;;;6148583;23;19915;-70
2021/11/02 00:05:25;;;;;;;3.67;1.42;;;;;;;;;;6177040;23;20458;-71
2021/11/02 00:07:50;;;;;;;6.35;1.60;;;;;;;;;;6177208;23;20101;-70
2021/11/02 00:10:16;;;;;;;5.60;1.55;;;;;;;;;;6175182;23;20012;-71
2021/11/02 00:12:41;;;;;;;3.47;1.42;;;;;;;;;;6174240;23;20029;-70
2021/11/02 00:15:07;;;;;;;4.60;1.73;;;;;;;;;;6175067;23;20058;-70
2021/11/02 00:17:38;;;;;;;6.25;1.83;;;;;;;;;;6150724;23;20005;-70
2021/11/02 00:20:07;;;;;;;4.20;1.75;;;;;;;;;;6149408;23;20062;-71
2021/11/02 00:22:36;;;;;;;6.13;2.28;;;;;;;;;;6172843;23;20009;-71
2021/11/02 00:25:06;;;;;;;5.55;1.80;;;;;;;;;;6173251;23;20136;-71
2021/11/02 00:27:38;;;;;;;3.97;1.88;;;;;;;;;;6176464;23;20001;-71
2021/11/02 00:30:08;;;;;;;6.95;2.40;;;;;;;;;;6175899;23;20835;-70
2021/11/02 00:32:33;;;;;;;4.30;1.80;;;;;;;;;;6177083;23;20693;-70
2021/11/02 00:34:59;;;;;;;4.78;1.92;;;;;;;;;;6175534;23;20087;-71
2021/11/02 00:37:25;;;;;;;3.92;1.90;;;;;;;;;;6176531;23;20005;-70
2021/11/02 00:39:50;;;;;;;4.07;1.83;;;;;;;;;;6178188;23;20458;-71
2021/11/02 00:42:16;;;;;;;5.35;1.80;;;;;;;;;;6177721;23;20032;-70
2021/11/02 00:44:44;;;;;;;5.50;2.13;;;;;;;;;;6178018;23;20059;-70
2021/11/02 00:47:17;;;;;;;3.92;1.73;;;;;;;;;;6177362;23;20037;-71
2021/11/02 00:49:43;;;;;;;8.07;1.90;;;;;;;;;;6177770;23;20577;-70
2021/11/02 00:52:09;;;;;;;8.32;1.65;;;;;;;;;;6175884;23;20067;-71
2021/11/02 00:54:34;;;;;;;3.53;1.60;;;;;;;;;;6176491;23;20056;-70
2021/11/02 00:56:59;;;;;;;7.45;2.05;;;;;;;;;;6176809;23;20096;-70
2021/11/02 00:59:25;;;;;;;4.13;2.00;;;;;;;;;;6178385;23;20037;-70
2021/11/02 01:01:50;;;;;;;4.80;1.90;;;;;;;;;;6177565;23;20036;-71
2021/11/02 01:04:16;;;;;;;5.28;1.80;;;;;;;;;;6177654;23;20318;-70
2021/11/02 01:06:41;;;;;;;3.42;1.75;;;;;;;;;;6152472;23;20056;-70
2021/11/02 01:09:07;;;;;;;9.07;1.88;;;;;;;;;;6153546;23;20009;-70
2021/11/02 01:11:33;;;;;;;5.07;1.98;;;;;;;;;;6177890;23;20577;-71
2021/11/02 01:13:59;;;;;;;6.57;1.90;;;;;;;;;;6178886;23;20031;-70
2021/11/02 01:16:25;;;;;;;4.30;1.85;;;;;;;;;;6176818;23;20005;-71
2021/11/02 01:18:54;;;;;;;8.88;2.00;;;;;;;;;;6178024;23;20031;-70
2021/11/02 01:21:20;;;;;;;4.03;1.83;;;;;;;;;;6179563;23;20342;-70
2021/11/02 01:23:46;;;;;;;4.93;1.85;;;;;;;;;;6177618;23;20005;-70
2021/11/02 01:26:11;;;;;;;5.45;2.55;;;;;;;;;;6177872;23;20753;-71
2021/11/02 01:28:37;;;;;;;7.03;2.90;;;;;;;;;;6174439;23;20234;-71
2021/11/02 01:31:02;;;;;;;7.15;2.60;;;;;;;;;;6177845;23;20684;-70
2021/11/02 01:33:28;;;;;;;6.40;2.40;;;;;;;;;;6178942;23;20040;-70
2021/11/02 01:35:54;;;;;;;6.07;2.22;;;;;;;;;;6178866;23;20004;-71
2021/11/02 01:38:23;;;;;;;5.45;2.00;;;;;;;;;;6176269;23;20009;-70
2021/11/02 01:40:48;;;;;;;6.10;2.28;;;;;;;;;;6150799;23;20039;-71
2021/11/02 01:43:14;;;;;;;4.50;2.15;;;;;;;;;;6177688;23;20458;-70
2021/11/02 01:45:40;;;;;;;7.68;4.10;;;;;;;;;;6177615;23;20024;-70
2021/11/02 01:48:06;;;;;;;8.90;4.47;;;;;;;;;;6177217;23;20013;-71
2021/11/02 01:50:32;;;;;;;10.25;4.53;;;;;;;;;;6178368;23;20005;-71
2021/11/02 01:52:58;;;;;;;7.70;3.88;;;;;;;;;;6175575;23;20005;-70
2021/11/02 01:55:24;;;;;;;8.70;3.77;;;;;;;;;;6178671;23;20449;-71
2021/11/02 01:57:50;;;;;;;9.75;3.88;;;;;;;;;;6142406;23;20001;-71
2021/11/02 02:03:09;;;;;;;7.15;2.40;;;;;;;;;;6152196;23;20478;-65
2021/11/02 02:06:13;;;;;;;6.75;3.45;;;;;;;;;;6148535;23;20586;-65
2021/11/02 02:12:22;;;;;;;6.35;2.97;;;;;;;;;;6078618;23;20020;-65
2021/11/02 02:15:30;;;;;;;5.03;3.72;;;;;;;;;;6087763;23;20040;-65
2021/11/02 02:18:00;;;;;;;7.30;4.55;;;;;;;;;;6055994;23;20086;-65
2021/11/02 02:20:51;;;;;;;10.45;3.78;;;;;;;;;;6058685;23;20400;-65
2021/11/02 02:23:54;;;;;;;4.18;1.50;;;;;;;;;;6077611;23;20746;-65
2021/11/02 02:26:31;;;;;;;4.70;2.90;;;;;;;;;;6086809;23;20089;-65
2021/11/02 02:29:00;;;;;;;4.10;1.73;;;;;;;;;;6087440;23;20002;-65
2021/11/02 02:31:29;;;;;;;5.28;1.70;;;;;;;;;;6086173;23;20037;-65
2021/11/02 02:33:55;;;;;;;3.78;2.00;;;;;;;;;;6084151;23;20375;-65
2021/11/02 02:36:21;;;;;;;4.88;1.30;;;;;;;;;;6060766;23;20010;-65
2021/11/02 02:38:48;;;;;;;3.00;1.10;;;;;;;;;;6087376;23;20888;-65
2021/11/02 02:41:14;;;;;;;3.17;1.17;;;;;;;;;;6087706;23;20014;-65
2021/11/02 02:43:43;;;;;;;2.80;1.55;;;;;;;;;;6137139;23;20009;-65
2021/11/02 02:46:11;;;;;;;5.35;2.28;;;;;;;;;;6147327;23;20077;-65
2021/11/02 02:48:38;;;;;;;9.30;4.90;;;;;;;;;;6149214;23;20123;-70
2021/11/02 02:51:04;;;;;;;6.63;3.50;;;;;;;;;;6141511;23;20145;-69
2021/11/02 02:53:30;;;;;;;15.15;7.45;;;;;;;;;;6141325;23;20025;-69
2021/11/02 02:56:00;;;;;;;11.45;5.85;;;;;;;;;;6146236;23;20002;-70
2021/11/02 02:58:33;;;;;;;16.73;7.13;;;;;;;;;;6141501;23;20002;-69
2021/11/02 03:00:59;;;;;;;24.60;11.10;;;;;;;;;;6146291;23;20485;-69
2021/11/02 03:03:26;;;;;;;34.17;10.70;;;;;;;;;;6143884;23;20091;-69
2021/11/02 03:05:53;;;;;;;47.75;14.88;;;;;;;;;;6141592;23;20009;-71
2021/11/02 03:08:28;;;;;;;43.33;13.57;;;;;;;;;;6143675;23;20289;-70
2021/11/02 03:10:55;;;;;;;27.08;11.50;;;;;;;;;;6142383;23;20013;-70
2021/11/02 03:13:22;;;;;;;21.27;10.05;;;;;;;;;;6144598;23;20119;-69
2021/11/02 03:16:00;;;;;;;11.18;4.57;;;;;;;;;;6144924;23;20017;-69
2021/11/02 05:10:40;;;;;;;2.25;0.80;;;;;;;;;;6159219;23;20009;-69
2021/11/02 05:50:05;;;;;;;2.35;1.30;;;;;;;;;;6143475;23;20343;-70
2021/11/02 06:00:56;;;;;;;22.17;14.07;;;;;;;;;;6101968;23;20040;-68
2021/11/02 06:11:30;;;;;;;11.15;6.70;;;;;;;;;;6162093;23;20005;-68
2021/11/02 06:28:13;;;;;;;2.70;1.50;;;;;;;;;;6148456;23;20012;-68
2021/11/02 06:46:58;;;;;;;11.57;6.25;;;;;;;;;;6125953;23;20020;-68
2021/11/02 06:52:18;;;;;;;16.40;7.50;;;;;;;;;;6186637;23;20013;-69
2021/11/02 07:00:29;;;;;;;;;;;;;;;;;;;;;
2021/11/02 07:25:11;;;;;;;4.28;2.00;;;;;;;;;;6189636;23;20041;-70
2021/11/02 08:47:14;;;;;;;2.40;1.23;;;;;;;;;;6147107;23;20044;-70
2021/11/02 08:49:46;;;;;;;2.33;1.00;;;;;;;;;;6173122;23;20079;-69
2021/11/02 08:52:14;;;;;;;2.38;1.00;;;;;;;;;;6176409;23;20017;-70
2021/11/02 08:54:45;;;;;;;2.92;1.17;;;;;;;;;;6176459;23;20020;-70
2021/11/02 08:57:11;;;;;;;1.95;0.90;;;;;;;;;;6177491;23;20009;-70
2021/11/02 08:59:37;;;;;;;1.90;0.90;;;;;;;;;;6179644;23;20119;-70
2021/11/02 09:02:08;;;;;;;2.83;0.88;;;;;;;;;;6176320;23;20423;-70
2021/11/02 09:05:01;;;;;;;1.83;0.80;;;;;;;;;;6179321;23;20009;-70
2021/11/02 09:07:28;;;;;;;4.65;2.13;;;;;;;;;;6164656;23;20008;-71
2021/11/02 09:09:56;;;;;;;3.65;0.80;;;;;;;;;;6180296;23;20326;-71
2021/11/02 09:12:31;;;;;;;2.63;0.90;;;;;;;;;;6178677;23;20079;-71
2021/11/02 09:15:03;;;;;;;7.10;1.07;;;;;;;;;;6179724;23;20401;-71
2021/11/02 09:17:31;;;;;;;4.10;0.88;;;;;;;;;;6176914;23;20343;-71
2021/11/02 09:20:03;;;;;;;4.50;1.20;;;;;;;;;;6179680;23;20009;-71
2021/11/02 09:22:32;;;;;;;5.68;1.20;;;;;;;;;;6180320;23;20009;-71
2021/11/02 09:25:00;;;;;;;2.55;0.80;;;;;;;;;;6179907;23;20083;-71
2021/11/02 09:27:27;;;;;;;;;;;;;;;;;;6179509;23;20310;-71
2021/11/02 09:29:52;;;;;;;2.45;0.80;;;;;;;;;;6180981;23;20217;-71
2021/11/02 09:32:18;;;;;;;1.88;0.70;;;;;;;;;;6179315;23;20072;-71
2021/11/02 09:34:44;;;;;;;4.13;1.35;;;;;;;;;;6175168;23;20017;-69
2021/11/02 09:37:34;;;;;;;2.30;0.90;;;;;;;;;;6176811;23;20005;-69
2021/11/02 09:40:35;;;;;;;1.85;0.90;;;;;;;;;;6174985;23;20005;-70
2021/11/02 09:43:08;;;;;;;4.78;1.02;;;;;;;;;;6175087;23;20665;-69
2021/11/02 09:46:11;;;;;;;2.80;0.93;;;;;;;;;;6175594;23;20219;-69
2021/11/02 09:48:51;;;;;;;5.80;1.40;;;;;;;;;;6177299;23;20000;-69
2021/11/02 09:51:41;;;;;;;2.80;1.02;;;;;;;;;;6175870;23;20350;-69
2021/11/02 09:54:15;;;;;;;3.90;1.02;;;;;;;;;;6173554;23;20021;-69
2021/11/02 09:57:05;;;;;;;2.25;1.00;;;;;;;;;;6174836;23;20298;-69
2021/11/02 09:59:52;;;;;;;3.17;1.08;;;;;;;;;;6176164;23;20431;-70
2021/11/02 10:02:38;;;;;;;4.97;1.85;;;;;;;;;;6172676;23;20099;-70
2021/11/02 10:05:07;;;;;;;2.93;1.10;;;;;;;;;;6175996;23;20037;-70
2021/11/02 10:08:01;;;;;;;4.10;1.27;;;;;;;;;;6169057;23;20008;-70
2021/11/02 10:11:01;;;;;;;4.28;1.15;;;;;;;;;;6117741;23;20084;-70
2021/11/02 10:13:38;;;;;;;4.30;1.70;;;;;;;;;;6163203;23;20116;-70
2021/11/02 10:16:16;;;;;;;1.75;0.95;;;;;;;;;;6178098;23;20051;-70
2021/11/02 10:18:56;;;;;;;2.35;1.40;;;;;;;;;;6178364;23;20009;-70
2021/11/02 10:21:49;;;;;;;2.83;1.25;;;;;;;;;;6177283;23;20004;-69
2021/11/02 10:24:45;;;;;;;3.13;1.42;;;;;;;;;;6175823;23;20012;-69
2021/11/02 10:27:30;;;;;;;2.33;1.15;;;;;;;;;;6134238;23;20016;-68
2021/11/02 10:30:15;;;;;;;2.08;1.40;;;;;;;;;;6177523;23;20104;-68
2021/11/02 10:32:45;;;;;;;2.08;1.10;;;;;;;;;;6185259;23;20009;-71
2021/11/02 10:35:29;;;;;;;5.82;1.90;;;;;;;;;;6201601;23;20004;-71
2021/11/02 10:38:06;;;;;;;6.15;1.52;;;;;;;;;;6200175;23;20431;-70
2021/11/02 10:40:39;;;;;;;2.53;1.40;;;;;;;;;;6201243;23;20001;-70
2021/11/02 10:43:33;;;;;;;3.42;1.40;;;;;;;;;;6203827;23;20017;-70
2021/11/02 10:46:04;;;;;;;6.10;1.73;;;;;;;;;;6206511;23;20066;-69
2021/11/02 10:48:47;;;;;;;4.25;1.52;;;;;;;;;;6204099;23;20358;-69
2021/11/02 10:51:24;;;;;;;3.75;1.55;;;;;;;;;;6207640;23;20027;-69
2021/11/02 10:54:17;;;;;;;5.30;1.80;;;;;;;;;;6206067;23;20009;-69
2021/11/02 10:57:13;;;;;;;4.00;1.80;;;;;;;;;;6207069;23;20072;-70
2021/11/02 10:59:45;;;;;;;3.65;2.00;;;;;;;;;;6205511;23;20453;-69
2021/11/02 11:02:30;;;;;;;4.40;2.13;;;;;;;;;;6205953;23;20013;-69
2021/11/02 11:05:00;;;;;;;3.47;1.85;;;;;;;;;;6204848;23;20047;-69
2021/11/02 11:07:45;;;;;;;5.05;2.05;;;;;;;;;;6179300;23;20013;-69
2021/11/02 11:10:15;;;;;;;5.38;2.50;;;;;;;;;;6206355;23;20004;-69
2021/11/02 11:12:56;;;;;;;5.40;2.03;;;;;;;;;;6204203;23;20016;-69
2021/11/02 11:15:24;;;;;;;4.00;2.40;;;;;;;;;;6206517;23;20012;-69
2021/11/02 11:17:53;;;;;;;5.70;2.75;;;;;;;;;;6207279;23;20373;-69
2021/11/02 11:20:21;;;;;;;5.00;2.85;;;;;;;;;;6201850;23;20016;-70
2021/11/02 11:22:52;;;;;;;7.22;4.43;;;;;;;;;;6202508;23;20034;-69
2021/11/02 11:25:28;;;;;;;5.45;2.20;;;;;;;;;;6203212;23;20008;-70
2021/11/02 11:27:56;;;;;;;5.28;2.33;;;;;;;;;;6202175;23;20000;-70
2021/11/02 11:30:29;;;;;;;3.80;2.72;;;;;;;;;;6173674;23;20139;-69
2021/11/02 11:32:55;;;;;;;5.10;2.70;;;;;;;;;;6201148;23;20024;-69
2021/11/02 11:35:21;;;;;;;6.50;2.90;;;;;;;;;;6200987;23;20175;-69
2021/11/02 11:37:49;;;;;;;5.45;3.67;;;;;;;;;;6200927;23;20031;-69
2021/11/02 11:40:18;;;;;;;6.40;2.80;;;;;;;;;;6200439;23;20015;-69
2021/11/02 11:42:48;;;;;;;5.20;3.60;;;;;;;;;;6204560;23;20001;-69
2021/11/02 11:45:19;;;;;;;6.88;3.47;;;;;;;;;;6196977;23;20034;-69
2021/11/02 11:47:44;;;;;;;5.63;3.20;;;;;;;;;;6203747;23;20110;-69
2021/11/02 11:50:19;;;;;;;5.95;3.40;;;;;;;;;;6200789;23;20644;-69
2021/11/02 11:52:50;;;;;;;6.40;3.50;;;;;;;;;;6203180;23;20009;-69
2021/11/02 11:55:27;;;;;;;5.38;3.05;;;;;;;;;;6204101;23;20488;-69
2021/11/02 11:58:22;;;;;;;5.28;3.00;;;;;;;;;;6203767;23;20012;-69
2021/11/02 12:01:10;;;;;;;6.10;3.03;;;;;;;;;;6201988;23;20012;-69
2021/11/02 12:03:55;;;;;;;8.48;3.72;;;;;;;;;;6183898;23;20433;-69
2021/11/02 12:06:25;;;;;;;14.30;7.30;;;;;;;;;;6207194;23;20016;-69
2021/11/02 12:09:12;;;;;;;10.45;5.55;;;;;;;;;;6205652;23;20004;-69
2021/11/02 12:11:41;;;;;;;7.28;4.30;;;;;;;;;;6204285;23;20010;-69
2021/11/02 12:14:17;;;;;;;8.10;4.25;;;;;;;;;;6206328;23;20429;-69
2021/11/02 12:16:45;;;;;;;8.98;5.10;;;;;;;;;;6202255;23;20004;-69
2021/11/02 12:19:11;;;;;;;5.97;3.72;;;;;;;;;;6204879;23;20031;-69
2021/11/02 12:21:40;;;;;;;9.73;5.63;;;;;;;;;;6181077;23;20023;-69
2021/11/02 12:24:08;;;;;;;12.02;7.43;;;;;;;;;;6204889;23;20424;-68
2021/11/02 12:26:45;;;;;;;14.95;8.13;;;;;;;;;;6207530;23;20422;-68
2021/11/02 12:29:16;;;;;;;7.97;5.57;;;;;;;;;;6179517;23;20039;-68
2021/11/02 12:31:45;;;;;;;6.03;3.90;;;;;;;;;;6206376;23;20550;-68
2021/11/02 12:34:13;;;;;;;8.38;4.82;;;;;;;;;;6209595;23;20014;-68
2021/11/02 12:36:45;;;;;;;6.30;4.30;;;;;;;;;;6208942;23;20062;-68
2021/11/02 12:39:10;;;;;;;6.80;4.28;;;;;;;;;;6205224;23;20015;-69
2021/11/02 12:41:47;;;;;;;5.97;3.88;;;;;;;;;;6206455;23;20642;-69
2021/11/02 12:44:15;;;;;;;7.00;4.07;;;;;;;;;;6208955;23;20011;-68
2021/11/02 12:46:47;;;;;;;6.00;3.97;;;;;;;;;;6209740;23;20024;-69
2021/11/02 12:49:16;;;;;;;7.03;3.50;;;;;;;;;;6205934;23;20091;-69
2021/11/02 12:51:50;;;;;;;7.18;4.15;;;;;;;;;;6208270;23;20055;-69
2021/11/02 12:54:20;;;;;;;11.52;5.68;;;;;;;;;;6209586;23;20490;-68
2021/11/02 12:57:05;;;;;;;7.47;4.68;;;;;;;;;;6209424;23;20008;-69
2021/11/02 12:59:36;;;;;;;8.43;3.80;;;;;;;;;;6182094;23;20087;-68
2021/11/02 13:02:32;;;;;;;6.65;4.03;;;;;;;;;;6209659;23;20441;-68
2021/11/02 13:05:05;;;;;;;9.23;4.68;;;;;;;;;;6179033;23;20016;-68
2021/11/02 13:07:37;;;;;;;11.70;5.30;;;;;;;;;;6209088;23;20000;-68
2021/11/02 13:10:11;;;;;;;12.07;6.25;;;;;;;;;;6208359;23;20031;-69
2021/11/02 13:12:39;;;;;;;15.80;5.85;;;;;;;;;;6210168;23;19996;-69
2021/11/02 13:15:10;;;;;;;4.68;2.13;;;;;;;;;;6210344;23;20016;-68
2021/11/02 13:17:40;;;;;;;3.45;2.08;;;;;;;;;;6209258;23;21085;-69
2021/11/02 13:20:07;;;;;;;3.92;1.83;;;;;;;;;;6209524;23;20334;-69
2021/11/02 13:22:33;;;;;;;3.45;1.65;;;;;;;;;;6210311;23;20119;-69
2021/11/02 13:24:59;;;;;;;3.92;1.80;;;;;;;;;;6209743;23;20450;-69
2021/11/02 13:27:38;;;;;;;4.70;2.10;;;;;;;;;;6209052;23;20032;-69
2021/11/02 13:30:31;;;;;;;5.10;2.63;;;;;;;;;;6209525;23;20001;-69
2021/11/02 13:33:06;;;;;;;3.40;1.67;;;;;;;;;;6207623;23;20001;-69
2021/11/02 13:35:47;;;;;;;2.05;1.40;;;;;;;;;;6210815;23;20008;-69
2021/11/02 13:38:28;;;;;;;4.40;1.70;;;;;;;;;;6208237;23;20721;-69
2021/11/02 13:41:17;;;;;;;3.45;1.52;;;;;;;;;;6208154;23;20785;-69
2021/11/02 13:43:46;;;;;;;3.60;1.80;;;;;;;;;;6152892;23;20011;-69
2021/11/02 13:46:19;;;;;;;2.45;1.50;;;;;;;;;;6208342;23;20486;-69
2021/11/02 13:48:47;;;;;;;4.40;1.90;;;;;;;;;;6208139;23;20032;-69
2021/11/02 13:51:15;;;;;;;1.63;1.35;;;;;;;;;;6209184;23;20043;-69
2021/11/02 13:53:43;;;;;;;4.35;2.10;;;;;;;;;;6207708;23;20062;-69
2021/11/02 13:56:12;;;;;;;4.68;1.80;;;;;;;;;;6209471;23;20047;-69
2021/11/02 13:58:39;;;;;;;3.78;1.70;;;;;;;;;;6208468;23;20091;-69
2021/11/02 14:01:07;;;;;;;12.00;2.97;;;;;;;;;;6179542;23;20112;-68
2021/11/02 14:03:37;;;;;;;3.97;1.52;;;;;;;;;;6207485;23;20005;-69
2021/11/02 14:06:04;;;;;;;1.60;0.85;;;;;;;;;;6207979;23;20036;-68
2021/11/02 14:08:30;;;;;;;2.15;0.60;;;;;;;;;;6207807;23;20299;-69
2021/11/02 14:10:58;;;;;;;1.40;0.80;;;;;;;;;;6210144;23;20011;-69
2021/11/02 14:13:46;;;;;;;1.45;0.80;;;;;;;;;;6207069;23;20024;-69
2021/11/02 14:16:26;;;;;;;12.27;6.78;;;;;;;;;;6209417;23;20380;-69
2021/11/02 14:18:51;;;;;;;28.23;15.40;;;;;;;;;;6209560;23;20011;-68
2021/11/02 14:21:50;;;;;;;13.98;4.40;;;;;;;;;;6209285;23;20083;-68
2021/11/02 14:24:29;;;;;;;11.35;5.90;;;;;;;;;;6209576;23;20001;-68
2021/11/02 14:26:54;;;;;;;4.75;1.75;;;;;;;;;;6209565;23;20005;-69
2021/11/02 14:29:47;;;;;;;4.85;1.63;;;;;;;;;;6182670;23;20012;-69
2021/11/02 14:32:31;;;;;;;1.90;0.73;;;;;;;;;;6210178;23;20008;-69
2021/11/02 14:34:57;;;;;;;3.47;1.17;;;;;;;;;;6208946;23;20425;-68
2021/11/02 14:37:22;;;;;;;3.55;1.63;;;;;;;;;;6182739;23;20008;-69
2021/11/02 14:39:59;;;;;;;2.55;1.52;;;;;;;;;;6209478;23;20012;-68
2021/11/02 14:42:40;;;;;;;3.92;0.82;;;;;;;;;;6206882;23;20012;-69
2021/11/02 14:45:08;;;;;;;4.78;1.33;;;;;;;;;;6183104;23;20000;-69
2021/11/02 14:47:35;;;;;;;2.47;1.27;;;;;;;;;;6200797;23;20001;-69
2021/11/02 14:50:04;;;;;;;3.58;1.13;;;;;;;;;;6204283;23;20020;-68
2021/11/02 14:52:36;;;;;;;3.90;1.48;;;;;;;;;;6208309;23;20008;-69
2021/11/02 14:55:01;;;;;;;3.20;1.23;;;;;;;;;;6207640;23;20015;-68
2021/11/02 14:57:27;;;;;;;2.75;0.90;;;;;;;;;;6207291;23;20075;-68
2021/11/02 14:59:58;;;;;;;5.05;1.10;;;;;;;;;;6208195;23;20011;-68
2021/11/02 15:02:34;;;;;;;4.95;1.25;;;;;;;;;;6207776;23;20054;-68
2021/11/02 15:05:06;;;;;;;2.03;1.03;;;;;;;;;;6211220;23;20000;-68
2021/11/02 15:07:36;;;;;;;2.75;1.02;;;;;;;;;;6211286;23;20250;-68
2021/11/02 15:10:06;;;;;;;3.20;0.90;;;;;;;;;;6211240;23;20004;-68
2021/11/02 15:12:34;;;;;;;1.52;0.60;;;;;;;;;;6212105;23;20011;-68
2021/11/02 15:15:02;;;;;;;2.33;0.95;;;;;;;;;;6211114;23;20009;-68
2021/11/02 15:17:28;;;;;;;1.15;0.70;;;;;;;;;;6210631;23;20233;-68
2021/11/02 15:19:54;;;;;;;1.88;0.90;;;;;;;;;;6182866;23;20080;-69
2021/11/02 15:22:24;;;;;;;2.92;2.25;;;;;;;;;;6211388;23;20008;-69
2021/11/02 15:24:54;;;;;;;3.80;1.77;;;;;;;;;;6211507;23;20075;-69
2021/11/02 15:27:33;;;;;;;3.20;1.20;;;;;;;;;;6213068;23;20004;-69
2021/11/02 15:30:06;;;;;;;1.88;0.80;;;;;;;;;;6211247;23;20004;-68
2021/11/02 15:32:40;;;;;;;2.47;1.00;;;;;;;;;;6206199;23;20309;-68
2021/11/02 15:35:08;;;;;;;3.25;1.02;;;;;;;;;;6210494;23;20004;-69
2021/11/02 15:37:41;;;;;;;1.73;0.93;;;;;;;;;;6211471;23;20000;-69
2021/11/02 15:40:12;;;;;;;2.97;1.35;;;;;;;;;;6204726;23;20103;-68
2021/11/02 15:42:42;;;;;;;2.03;1.00;;;;;;;;;;6206139;23;20446;-68
2021/11/02 15:45:12;;;;;;;3.53;1.60;;;;;;;;;;6206799;23;20385;-68
2021/11/02 15:47:48;;;;;;;1.98;0.93;;;;;;;;;;6210883;23;20091;-68
2021/11/02 15:50:25;;;;;;;0.93;0.70;;;;;;;;;;6207695;23;20023;-68
2021/11/02 15:52:57;;;;;;;1.10;0.90;;;;;;;;;;6208795;23;20050;-68
2021/11/02 15:55:25;;;;;;;1.23;0.65;;;;;;;;;;6207877;23;20449;-68
2021/11/02 15:58:01;;;;;;;1.42;0.70;;;;;;;;;;6179797;23;20035;-68
2021/11/02 16:00:31;;;;;;;2.10;1.10;;;;;;;;;;6209199;23;20055;-68
2021/11/02 16:02:58;;;;;;;2.30;0.80;;;;;;;;;;6208978;23;20711;-68
2021/11/02 16:05:27;;;;;;;2.67;0.90;;;;;;;;;;6210243;23;20009;-68
2021/11/02 16:08:00;;;;;;;1.17;0.88;;;;;;;;;;6209396;23;20001;-69
2021/11/02 16:10:31;;;;;;;1.60;0.80;;;;;;;;;;6209622;23;20001;-68
2021/11/02 16:13:04;;;;;;;1.17;0.75;;;;;;;;;;6209655;23;20000;-68
2021/11/02 16:15:33;;;;;;;3.05;1.20;;;;;;;;;;6209467;23;20008;-68
2021/11/02 16:18:03;;;;;;;2.15;1.10;;;;;;;;;;6209525;23;20005;-68
2021/11/02 16:20:31;;;;;;;4.45;1.20;;;;;;;;;;6212101;23;20011;-68
2021/11/02 16:23:04;;;;;;;1.42;0.90;;;;;;;;;;6207326;23;20009;-68
2021/11/02 16:25:32;;;;;;;1.80;0.75;;;;;;;;;;6208565;23;20086;-70
2021/11/02 16:28:14;;;;;;;1.60;0.88;;;;;;;;;;6208572;23;20326;-68
2021/11/02 16:30:42;;;;;;;1.65;0.73;;;;;;;;;;6208147;23;20096;-68
2021/11/02 16:33:08;;;;;;;5.10;1.58;;;;;;;;;;6206544;23;20599;-68
2021/11/02 16:35:45;;;;;;;3.30;1.20;;;;;;;;;;6206758;23;20079;-68
2021/11/02 16:38:20;;;;;;;2.08;0.85;;;;;;;;;;6199035;23;20090;-68
2021/11/02 16:40:50;;;;;;;5.88;1.48;;;;;;;;;;6206465;23;20009;-68
2021/11/02 16:43:24;;;;;;;2.42;0.90;;;;;;;;;;6206227;23;20016;-68
2021/11/02 16:45:50;;;;;;;5.57;1.70;;;;;;;;;;6205636;23;20109;-68
2021/11/02 16:48:16;;;;;;;2.35;1.20;;;;;;;;;;6204092;23;20000;-68
2021/11/02 16:50:42;;;;;;;2.55;0.80;;;;;;;;;;6208632;23;20030;-68
2021/11/02 16:53:11;;;;;;;2.13;0.90;;;;;;;;;;6206284;23;20005;-68
2021/11/02 16:55:40;;;;;;;5.85;1.65;;;;;;;;;;6206986;23;20058;-68
2021/11/02 16:58:26;;;;;;;2.83;0.90;;;;;;;;;;6179894;23;20087;-68
2021/11/02 17:01:10;;;;;;;5.30;1.88;;;;;;;;;;6208188;23;20011;-68
2021/11/02 17:03:36;;;;;;;2.85;1.00;;;;;;;;;;6205810;23;20032;-68
2021/11/02 17:06:21;;;;;;;2.95;1.00;;;;;;;;;;6206899;23;20023;-68
2021/11/02 17:09:08;;;;;;;3.53;1.63;;;;;;;;;;6207880;23;20004;-68
2021/11/02 17:11:45;;;;;;;;;;;;;;;;;;6208082;23;20017;-68
2021/11/02 17:14:12;;;;;;;4.90;3.40;;;;;;;;;;6207360;23;19908;-68
2021/11/02 17:16:43;;;;;;;5.65;2.50;;;;;;;;;;6206718;23;20042;-68
2021/11/02 17:19:09;;;;;;;7.28;2.03;;;;;;;;;;6203365;23;20371;-68
2021/11/02 17:21:37;;;;;;;5.43;2.25;;;;;;;;;;6181631;23;20043;-68
2021/11/02 17:24:05;;;;;;;6.97;2.42;;;;;;;;;;6206644;23;20374;-68
2021/11/02 17:26:34;;;;;;;3.63;1.70;;;;;;;;;;6205706;23;20070;-68
2021/11/02 17:29:01;;;;;;;3.78;1.90;;;;;;;;;;6208064;23;20107;-68
2021/11/02 17:31:36;;;;;;;6.82;2.30;;;;;;;;;;6208464;23;20184;-68
2021/11/02 17:34:02;;;;;;;8.75;3.88;;;;;;;;;;6205332;23;20092;-68
2021/11/02 17:36:27;;;;;;;4.25;3.00;;;;;;;;;;6207452;23;20004;-68
2021/11/02 17:38:54;;;;;;;5.00;4.50;;;;;;;;;;6206898;23;20088;-68
2021/11/02 17:41:20;;;;;;;5.65;2.72;;;;;;;;;;6207987;23;20004;-68
2021/11/02 17:43:48;;;;;;;5.72;3.40;;;;;;;;;;6208187;23;20009;-68
2021/11/02 17:46:15;;;;;;;14.48;9.63;;;;;;;;;;6182083;23;20449;-68
2021/11/02 17:48:41;;;;;;;10.25;4.53;;;;;;;;;;6203451;23;20342;-68
2021/11/02 17:51:07;;;;;;;8.50;6.00;;;;;;;;;;6205448;23;20019;-68
2021/11/02 17:53:37;;;;;;;12.27;6.35;;;;;;;;;;6205398;23;20677;-68
2021/11/02 17:56:07;;;;;;;17.10;10.07;;;;;;;;;;6207643;23;20043;-68
2021/11/02 17:58:34;;;;;;;2.15;1.30;;;;;;;;;;6207940;23;20382;-68
2021/11/02 18:01:03;;;;;;;3.70;1.33;;;;;;;;;;6207765;23;20048;-68
2021/11/02 18:03:35;;;;;;;2.75;1.27;;;;;;;;;;6207069;23;20434;-68
2021/11/02 18:06:07;;;;;;;6.13;3.22;;;;;;;;;;6202118;23;20008;-68
2021/11/02 18:08:34;;;;;;;7.53;3.40;;;;;;;;;;6202815;23;20000;-68
2021/11/02 18:11:00;;;;;;;16.15;7.50;;;;;;;;;;6205323;23;20009;-68
2021/11/02 18:13:27;;;;;;;5.30;2.03;;;;;;;;;;6205508;23;20382;-68
2021/11/02 18:15:57;;;;;;;4.18;2.00;;;;;;;;;;6207869;23;20004;-68
2021/11/02 18:18:26;;;;;;;20.15;8.88;;;;;;;;;;6203057;23;20005;-68
2021/11/02 18:20:54;;;;;;;2.75;1.15;;;;;;;;;;6203153;23;20378;-68
2021/11/02 18:23:20;;;;;;;8.15;4.43;;;;;;;;;;6203937;23;20099;-68
2021/11/02 18:25:46;;;;;;;6.40;2.10;;;;;;;;;;6205822;23;20697;-68
2021/11/02 18:28:11;;;;;;;14.50;4.30;;;;;;;;;;6202467;23;20066;-68
2021/11/02 18:30:37;;;;;;;24.10;11.23;;;;;;;;;;6204563;23;20098;-68
2021/11/02 18:33:05;;;;;;;26.42;12.02;;;;;;;;;;6204221;23;20011;-68
2021/11/02 18:35:31;;;;;;;5.40;2.50;;;;;;;;;;6205200;23;20004;-68
2021/11/02 18:37:57;;;;;;;37.75;17.25;;;;;;;;;;6204644;23;20004;-69
2021/11/02 18:40:23;;;;;;;12.43;6.63;;;;;;;;;;6202516;23;20005;-68
2021/11/02 18:42:50;;;;;;;29.85;16.05;;;;;;;;;;6205955;23;20131;-68
2021/11/02 18:45:17;;;;;;;9.60;6.97;;;;;;;;;;6206422;23;20395;-68
2021/11/02 18:47:44;;;;;;;7.80;4.30;;;;;;;;;;6205123;23;20005;-68
2021/11/02 18:50:11;;;;;;;10.63;6.88;;;;;;;;;;6203683;23;20020;-68
2021/11/02 18:52:37;;;;;;;3.97;1.70;;;;;;;;;;6205506;23;20012;-68
2021/11/02 18:55:04;;;;;;;23.88;12.15;;;;;;;;;;6205095;23;20008;-68
2021/11/02 18:57:31;;;;;;;23.25;10.80;;;;;;;;;;6205910;23;20004;-68
2021/11/02 18:59:57;;;;;;;11.35;5.60;;;;;;;;;;6205736;23;20043;-70
2021/11/02 19:02:23;;;;;;;9.18;3.58;;;;;;;;;;6204991;23;20005;-70
2021/11/02 19:05:20;;;;;;;9.93;3.05;;;;;;;;;;6207396;23;20024;-69
2021/11/02 19:07:46;;;;;;;10.55;6.68;;;;;;;;;;6204278;23;20019;-69
2021/11/02 19:10:11;;;;;;;6.18;2.40;;;;;;;;;;6205215;23;20334;-71
2021/11/02 19:12:37;;;;;;;10.93;3.03;;;;;;;;;;6205484;23;20005;-69
2021/11/02 19:15:04;;;;;;;5.45;2.92;;;;;;;;;;6208066;23;20004;-69
2021/11/02 19:17:30;;;;;;;5.00;2.35;;;;;;;;;;6207185;23;20004;-70
2021/11/02 19:19:56;;;;;;;7.43;3.30;;;;;;;;;;6205898;23;20449;-71
2021/11/02 19:22:22;;;;;;;10.32;2.92;;;;;;;;;;6208514;23;20100;-70
2021/11/02 19:24:49;;;;;;;6.60;3.57;;;;;;;;;;6208108;23;20330;-70
2021/11/02 19:27:14;;;;;;;4.82;3.30;;;;;;;;;;6208341;23;20012;-70
2021/11/02 19:29:40;;;;;;;4.30;2.60;;;;;;;;;;6206086;23;20445;-70
2021/11/02 19:32:05;;;;;;;7.15;4.07;;;;;;;;;;6207923;23;20378;-69
2021/11/02 19:34:32;;;;;;;4.50;2.33;;;;;;;;;;6208386;23;20027;-70
2021/11/02 19:37:01;;;;;;;3.70;2.00;;;;;;;;;;6207215;23;20005;-69
2021/11/02 19:39:26;;;;;;;1.67;1.08;;;;;;;;;;6206669;23;20460;-69
2021/11/02 19:41:53;;;;;;;6.32;3.20;;;;;;;;;;6206181;23;20004;-70
2021/11/02 19:44:19;;;;;;;2.88;2.10;;;;;;;;;;6204702;23;20314;-70
2021/11/02 19:46:44;;;;;;;6.10;2.30;;;;;;;;;;6207004;23;20009;-70
2021/11/02 19:49:10;;;;;;;3.30;1.42;;;;;;;;;;6206389;23;20465;-70
2021/11/02 19:51:36;;;;;;;5.13;1.40;;;;;;;;;;6205824;23;20444;-69
2021/11/02 19:54:02;;;;;;;4.22;1.63;;;;;;;;;;6207780;23;20004;-69
2021/11/02 19:56:27;;;;;;;2.25;1.05;;;;;;;;;;6207347;23;20062;-69
2021/11/02 19:58:53;;;;;;;3.20;1.20;;;;;;;;;;6179591;23;20419;-69
2021/11/02 20:01:18;;;;;;;2.25;1.10;;;;;;;;;;6202098;23;20005;-69
2021/11/02 20:03:49;;;;;;;2.85;0.98;;;;;;;;;;6206335;23;20012;-69
2021/11/02 20:06:23;;;;;;;5.25;2.08;;;;;;;;;;6206439;23;20013;-69
2021/11/02 20:08:54;;;;;;;6.90;2.03;;;;;;;;;;6197961;23;20005;-71
2021/11/02 20:11:28;;;;;;;3.60;1.30;;;;;;;;;;6206282;23;20127;-69
2021/11/02 20:13:55;;;;;;;5.43;2.33;;;;;;;;;;6206866;23;20005;-70
2021/11/02 20:16:22;;;;;;;6.20;2.70;;;;;;;;;;6206093;23;20038;-69
2021/11/02 20:18:56;;;;;;;4.68;2.22;;;;;;;;;;6206393;23;20111;-71
2021/11/02 20:21:27;;;;;;;3.85;2.00;;;;;;;;;;6206791;23;20011;-70